Dades meteomassalio
Diari Summary for Noviembre 4, 2017 Units:  Metric    English   Both
« Previous Day
Next Day »
Diari Semanal Mensual Anual Personalitzat
  Maxima: Minima: Mijana:
Temperatura: -17.8 °C -13.2 °C -10.3 °C
Rosada: -17.8 °C -14.5 °C -12.3 °C
Humitat: Humidity % 55 % 79 %
Velocitat del vent: 0 km/h 0 km/h 8.9 km/h
Racha vent: 0 km/h - -
Vent:- - WSW
Pressio: 0 hPa 34246 hPa -
Pluja: 58.42 mm    
Historical Graphs
 
 
Tabular Data for Noviembre 4, 2017
Time Temperature Dew Point Pressure Wind Wind Speed Wind Gust Humidity Rainfall Rate (Hourly) solar Conditions
-17.8 °C -17.8 °C 0 hPa Calm     Humidity % 0 mm SolarRadiationWatts/m^2 W/m2 Conditions
00:00 -13.2 °C -14.5 °C 34384.8 hPa Calm     85 % 0 mm 0.0 W/m2 RA
00:05 -13.2 °C -14.5 °C 34384.8 hPa Calm     85 % 0 mm 0.0 W/m2 CLR
00:10 -13.2 °C -14.5 °C 34384.8 hPa Calm     85 % 0 mm 0.0 W/m2 CLR
00:16 -13.2 °C -14.5 °C 34384.8 hPa Calm     85 % 0 mm 0.0 W/m2 CLR
00:21 -13.2 °C -14.5 °C 34384.8 hPa Calm     85 % 0 mm 0.0 W/m2 CLR
00:25 -13.2 °C -14.4 °C 34384.8 hPa Calm     86 % 0 mm 0.0 W/m2 CLR
00:31 -13.2 °C -14.4 °C 34384.8 hPa Calm     86 % 0 mm 0.0 W/m2 CLR
00:36 -13.2 °C -14.4 °C 34384.8 hPa Calm     86 % 0 mm 0.0 W/m2 CLR
00:41 -12.8 °C -14.1 °C 34384.8 hPa Calm     86 % 0 mm 0.0 W/m2 CLR
00:46 -12.8 °C -14.1 °C 34384.8 hPa Calm     86 % 0 mm 0.0 W/m2 CLR
00:51 -12.8 °C -14.1 °C 34384.8 hPa Calm     86 % 0 mm 0.0 W/m2 CLR
00:56 -12.8 °C -14.1 °C 34384.8 hPa Calm     86 % 0 mm 0.0 W/m2 CLR
00:59 -12.8 °C -14.1 °C 34384.8 hPa Calm     86 % 0 mm 0.0 W/m2 CLR
01:04 -12.8 °C -14.1 °C 34384.8 hPa Calm     86 % 0 mm 0.0 W/m2 CLR
01:09 -12.8 °C -14.1 °C 34384.8 hPa Calm     86 % 0 mm 0.0 W/m2 CLR
01:14 -12.8 °C -14.1 °C 34384.8 hPa Calm     86 % 0 mm 0.0 W/m2 CLR
01:19 -12.8 °C -14.1 °C 34371.3 hPa Calm     86 % 0 mm 0.0 W/m2 CLR
01:24 -12.8 °C -14.1 °C 34371.3 hPa Calm     86 % 0 mm 0.0 W/m2 CLR
01:29 -12.8 °C -14 °C 34371.3 hPa Calm     87 % 0 mm 0.0 W/m2 CLR
01:34 -12.8 °C -14.1 °C 34371.3 hPa Calm     86 % 0 mm 0.0 W/m2 CLR
01:39 -12.8 °C -14.1 °C 34371.3 hPa Calm     86 % 0 mm 0.0 W/m2 CLR
01:45 -12.6 °C -13.7 °C 34371.3 hPa Calm     87 % 0 mm 0.0 W/m2 CLR
01:49 -12.6 °C -13.7 °C 34371.3 hPa Calm     87 % 0 mm 0.0 W/m2 CLR
01:55 -12.6 °C -13.7 °C 34361.1 hPa Calm     87 % 0 mm 0.0 W/m2 CLR
02:00 -12.6 °C -13.7 °C 34361.1 hPa Calm     87 % 0 mm 0.0 W/m2 CLR
02:05 -12.8 °C -14 °C 34361.1 hPa Calm     87 % 0 mm 0.0 W/m2 CLR
02:10 -12.8 °C -14.1 °C 34361.1 hPa Calm     86 % 0 mm 0.0 W/m2 CLR
02:11 -12.8 °C -14.1 °C 34361.1 hPa Calm     86 % 0 mm 0.0 W/m2 CLR
02:16 -12.8 °C -14.1 °C 34361.1 hPa Calm     86 % 0 mm 0.0 W/m2 CLR
02:21 -13.2 °C -14.4 °C 34361.1 hPa Calm     86 % 0 mm 0.0 W/m2 CLR
02:22 -13.2 °C -14.4 °C 34361.1 hPa Calm     86 % 0 mm 0.0 W/m2 CLR
02:27 -13.2 °C -14.4 °C 34361.1 hPa Calm     86 % 0 mm 0.0 W/m2 CLR
02:32 -13.2 °C -14.3 °C 34361.1 hPa Calm     87 % 0 mm 0.0 W/m2 CLR
02:37 -13.2 °C -14.3 °C 34361.1 hPa Calm     87 % 0 mm 0.0 W/m2 CLR
02:42 -13.2 °C -14.3 °C 34361.1 hPa Calm     87 % 0 mm 0.0 W/m2 CLR
02:47 -13.2 °C -14.3 °C 34361.1 hPa Calm     87 % 0 mm 0.0 W/m2 CLR
02:52 -13.2 °C -14.3 °C 34347.6 hPa Calm     87 % 0 mm 0.0 W/m2 CLR
02:57 -13.2 °C -14.3 °C 34347.6 hPa Calm     87 % 0 mm 0.0 W/m2 CLR
03:02 -13.2 °C -14.3 °C 34347.6 hPa Calm     87 % 0 mm 0.0 W/m2 CLR
03:07 -13.2 °C -14.2 °C 34347.6 hPa Calm     88 % 0 mm 0.0 W/m2 CLR
03:12 -12.8 °C -13.9 °C 34347.6 hPa Calm     88 % 0 mm 0.0 W/m2 CLR
03:17 -12.8 °C -13.9 °C 34347.6 hPa Calm     88 % 0 mm 0.0 W/m2 CLR
03:22 -12.8 °C -13.9 °C 34347.6 hPa Calm     88 % 0 mm 0.0 W/m2 CLR
03:27 -12.8 °C -13.9 °C 34347.6 hPa Calm     88 % 0 mm 0.0 W/m2 CLR
03:32 -12.8 °C -13.9 °C 34347.6 hPa Calm     88 % 0 mm 0.0 W/m2 CLR
03:37 -12.8 °C -13.9 °C 34337.4 hPa Calm     88 % 0 mm 0.0 W/m2 CLR
03:42 -12.8 °C -13.9 °C 34337.4 hPa Calm     88 % 0 mm 0.0 W/m2 CLR
03:47 -12.6 °C -13.6 °C 34337.4 hPa Calm     88 % 0 mm 0.0 W/m2 CLR
03:52 -12.6 °C -13.6 °C 34337.4 hPa Calm     88 % 0 mm 0.0 W/m2 CLR
03:57 -12.6 °C -13.6 °C 34337.4 hPa Calm     88 % 0 mm 0.0 W/m2 CLR
04:02 -12.8 °C -13.9 °C 34327.3 hPa Calm     88 % 0 mm 0.0 W/m2 CLR
04:07 -12.8 °C -13.9 °C 34337.4 hPa Calm     88 % 0 mm 0.0 W/m2 CLR
04:12 -12.6 °C -13.6 °C 34327.3 hPa Calm     88 % 0 mm 0.0 W/m2 CLR
04:20 -12.6 °C -13.5 °C 34327.3 hPa Calm     89 % 0 mm 0.0 W/m2 CLR
04:21 -12.6 °C -13.5 °C 34327.3 hPa Calm     89 % 0 mm 0.0 W/m2 CLR
04:24 -12.6 °C -13.5 °C 34327.3 hPa Calm     89 % 0 mm 0.0 W/m2 CLR
04:27 -12.2 °C -13.3 °C 34327.3 hPa Calm     88 % 0 mm 0.0 W/m2 CLR
04:28 -12.2 °C -13.3 °C 34337.4 hPa Calm     88 % 0 mm 0.0 W/m2 CLR
04:29 -12.2 °C -13.3 °C 34327.3 hPa Calm     88 % 0 mm 0.0 W/m2 CLR
04:38 -12.2 °C -13.3 °C 34337.4 hPa SSW 3.1 km/h   88 % 0 mm 0.0 W/m2 CLR
04:43 -12.2 °C -13.3 °C 34327.3 hPa Calm     88 % 0 mm 0.0 W/m2 CLR
04:48 -12.2 °C -13.2 °C 34327.3 hPa Calm     89 % 0 mm 0.0 W/m2 CLR
04:53 -11.9 °C -12.9 °C 34327.3 hPa Calm     88 % 0 mm 0.0 W/m2 CLR
04:58 -11.9 °C -12.9 °C 34313.7 hPa Calm     88 % 0 mm 0.0 W/m2 CLR
05:03 -11.9 °C -12.9 °C 34313.7 hPa Calm     88 % 0 mm 0.0 W/m2 CLR
05:08 -11.9 °C -12.9 °C 34327.3 hPa West 9 km/h 9 km/h 88 % 0 mm 0.0 W/m2 CLR
05:13 -11.9 °C -12.9 °C 34313.7 hPa Calm     89 % 0 mm 0.0 W/m2 CLR
05:18 -11.9 °C -12.9 °C 34327.3 hPa Calm     89 % 0 mm 0.0 W/m2 CLR
05:23 -11.9 °C -12.9 °C 34327.3 hPa Calm     89 % 0 mm 0.0 W/m2 CLR
05:28 -11.9 °C -12.9 °C 34327.3 hPa Calm     89 % 0 mm 0.0 W/m2 CLR
05:33 -11.9 °C -12.9 °C 34337.4 hPa Calm     89 % 0 mm 0.0 W/m2 CLR
05:38 -11.9 °C -12.8 °C 34337.4 hPa Calm     90 % 0 mm 0.0 W/m2 CLR
05:43 -11.9 °C -12.8 °C 34337.4 hPa Calm     90 % 0 mm 0.0 W/m2 CLR
05:48 -11.9 °C -12.8 °C 34337.4 hPa Calm     90 % 0 mm 0.0 W/m2 CLR
05:53 -11.6 °C -12.4 °C 34347.6 hPa SSW 11.9 km/h 11.9 km/h 91 % 0 mm 0.0 W/m2 CLR
05:58 -11.6 °C -12.4 °C 34347.6 hPa Calm     91 % 0 mm 0.0 W/m2 CLR
06:03 -11.6 °C -12.4 °C 34347.6 hPa SE 10.3 km/h 10.3 km/h 91 % 7.62 mm 0.0 W/m2 RA
06:08 -11.6 °C -12.4 °C 34347.6 hPa South 17.9 km/h 17.9 km/h 91 % 7.62 mm 0.0 W/m2
06:13 -11.6 °C -12.4 °C 34347.6 hPa Calm     91 % 7.62 mm 0.0 W/m2 CLR
06:18 -11.6 °C -12.4 °C 34347.6 hPa Calm     91 % 7.62 mm 0.0 W/m2 CLR
06:23 -11.6 °C -12.3 °C 34347.6 hPa Calm     92 % 7.62 mm 0.0 W/m2 CLR
06:28 -11.6 °C -12.4 °C 34337.4 hPa Calm     91 % 7.62 mm 0.0 W/m2 CLR
06:33 -11.6 °C -12.4 °C 34337.4 hPa Calm     91 % 7.62 mm 0.0 W/m2 CLR
06:38 -11.6 °C -12.4 °C 34327.3 hPa Calm     91 % 7.62 mm 0.0 W/m2 CLR
06:43 -11.6 °C -12.4 °C 34327.3 hPa Calm     91 % 7.62 mm 0.0 W/m2 CLR
06:48 -11.6 °C -12.4 °C 34327.3 hPa Calm     91 % 7.62 mm 0.0 W/m2 CLR
06:53 -11.6 °C -12.4 °C 34327.3 hPa Calm     91 % 7.62 mm 0.0 W/m2 CLR
06:58 -11.6 °C -12.4 °C 34327.3 hPa Calm     91 % 7.62 mm 0.0 W/m2 CLR
07:03 -11.6 °C -12.4 °C 34327.3 hPa Calm     91 % 0 mm 0.0 W/m2 CLR
07:08 -11.6 °C -12.4 °C 34327.3 hPa Calm     91 % 0 mm 0.0 W/m2 CLR
07:14 -11.6 °C -12.4 °C 34327.3 hPa Calm     91 % 0 mm 0.0 W/m2 CLR
07:19 -11.6 °C -12.4 °C 34313.7 hPa Calm     91 % 0 mm 0.0 W/m2 CLR
07:24 -11.6 °C -12.4 °C 34313.7 hPa Calm     91 % 0 mm 0.0 W/m2 CLR
07:29 -11.6 °C -12.3 °C 34313.7 hPa Calm     92 % 0 mm 0.0 W/m2 OVC
07:34 -11.6 °C -12.3 °C 34313.7 hPa Calm     92 % 0 mm 0.0 W/m2 OVC
07:39 -11.6 °C -12.3 °C 34327.3 hPa Calm     92 % 0 mm 0.0 W/m2 OVC
07:44 -11.6 °C -12.3 °C 34327.3 hPa Calm     92 % 0 mm 0.0 W/m2 OVC
07:49 -11.6 °C -12.3 °C 34327.3 hPa Calm     92 % 0 mm 7.0 W/m2 OVC
07:54 -11.6 °C -12.3 °C 34327.3 hPa Calm     92 % 0 mm 12.0 W/m2 OVC
07:59 -11.6 °C -12.3 °C 34327.3 hPa Calm     92 % 0 mm 25.0 W/m2 OVC
08:04 -11.9 °C -12.7 °C 34327.3 hPa Calm     91 % 0 mm 32.0 W/m2 OVC
08:09 -11.9 °C -12.7 °C 34337.4 hPa Calm     91 % 0 mm 42.0 W/m2 OVC
08:14 -11.9 °C -12.6 °C 34337.4 hPa Calm     92 % 0 mm 49.0 W/m2 OVC
08:19 -11.9 °C -12.6 °C 34337.4 hPa Calm     92 % 0 mm 53.0 W/m2 OVC
08:24 -11.9 °C -12.6 °C 34337.4 hPa Calm     92 % 0 mm 79.0 W/m2 OVC
08:29 -11.9 °C -12.6 °C 34337.4 hPa Calm     92 % 0 mm 95.0 W/m2 OVC
08:34 -11.9 °C -12.6 °C 34337.4 hPa Calm     92 % 0 mm 102.0 W/m2 OVC
08:39 -11.9 °C -12.6 °C 34337.4 hPa Calm     92 % 0 mm 134.0 W/m2 SCT
08:44 -11.6 °C -12.4 °C 34337.4 hPa Calm     91 % 0 mm 171.0 W/m2 CLR
08:49 -11.3 °C -12.1 °C 34337.4 hPa Calm     91 % 0 mm 181.0 W/m2 CLR
08:54 -11 °C -12 °C 34337.4 hPa Calm     89 % 0 mm 174.0 W/m2 CLR
08:59 -10.7 °C -11.8 °C 34337.4 hPa Calm     88 % 0 mm 162.0 W/m2 CLR
09:04 -10.7 °C -11.8 °C 34337.4 hPa Calm     88 % 0 mm 148.0 W/m2 CLR
09:09 -10.7 °C -11.8 °C 34337.4 hPa Calm     87 % 0 mm 197.0 W/m2 CLR
09:14 -10.4 °C -11.6 °C 34337.4 hPa Calm     86 % 0 mm 213.0 W/m2 CLR
09:19 -10.4 °C -11.7 °C 34337.4 hPa Calm     85 % 0 mm 232.0 W/m2 CLR
09:24 -10.4 °C -11.8 °C 34337.4 hPa Calm     84 % 0 mm 251.0 W/m2 CLR
09:29 -10.4 °C -11.9 °C 34337.4 hPa Calm     83 % 0 mm 265.0 W/m2 CLR
09:34 -10.4 °C -12.1 °C 34337.4 hPa Calm     81 % 0 mm 279.0 W/m2 CLR
09:39 -10.4 °C -12.3 °C 34337.4 hPa Calm     80 % 0 mm 288.0 W/m2 CLR
09:44 -10.1 °C -11.9 °C 34337.4 hPa Calm     80 % 0 mm 304.0 W/m2 CLR
09:49 -10.1 °C -12.3 °C 34337.4 hPa Calm     77 % 0 mm 74.0 W/m2 CLR
09:54 -10.1 °C -12.3 °C 34337.4 hPa Calm     77 % 0 mm 250.0 W/m2 CLR
09:59 -10.1 °C -12.3 °C 34337.4 hPa Calm     77 % 0 mm 341.0 W/m2 CLR
10:04 -9.8 °C -12 °C 34337.4 hPa Calm     77 % 0 mm 383.0 W/m2 CLR
10:05 -9.8 °C -12.1 °C 34337.4 hPa Calm     76 % 0 mm 406.0 W/m2 CLR
10:10 -8.8 °C -11.3 °C 34337.4 hPa Calm     75 % 0 mm 425.0 W/m2 CLR
10:15 -8.5 °C -11 °C 34337.4 hPa Calm     75 % 0 mm 466.0 W/m2 CLR
10:20 -8.2 °C -10.9 °C 34337.4 hPa Calm     73 % 0 mm 457.0 W/m2 CLR
10:25 -8.2 °C -11.1 °C 34337.4 hPa Calm     72 % 0 mm 406.0 W/m2 CLR
10:30 -7.9 °C -10.9 °C 34337.4 hPa NW 6 km/h 6 km/h 71 % 0 mm 181.0 W/m2 CLR
10:35 -7.9 °C -11.1 °C 34337.4 hPa Calm     69 % 0 mm 139.0 W/m2 CLR
10:40 -7.9 °C -11.1 °C 34337.4 hPa Calm     69 % 0 mm 120.0 W/m2 CLR
10:45 -7.9 °C -11.1 °C 34337.4 hPa Calm     69 % 0 mm 90.0 W/m2 CLR
10:50 -7.9 °C -11.1 °C 34347.6 hPa Calm     69 % 0 mm 88.0 W/m2 CLR
10:55 -7.9 °C -10.6 °C 34347.6 hPa WNW 5.1 km/h 5.1 km/h 73 % 0 mm 116.0 W/m2 CLR
11:00 -7.9 °C -10.4 °C 34337.4 hPa Calm     75 % 0 mm 165.0 W/m2 CLR
11:05 -7.9 °C -10.2 °C 34337.4 hPa West 9 km/h 9 km/h 77 % 0 mm 172.0 W/m2 CLR
11:10 -7.9 °C -10.1 °C 34337.4 hPa Calm     78 % 0 mm 199.0 W/m2 CLR
11:15 -7.9 °C -10.1 °C 34337.4 hPa Calm     78 % 0 mm 213.0 W/m2 CLR
11:20 -7.9 °C -10.1 °C 34337.4 hPa Calm     78 % 0 mm 202.0 W/m2 CLR
11:25 -7.9 °C -10.1 °C 34337.4 hPa Calm     78 % 0 mm 248.0 W/m2 CLR
11:30 -7.9 °C -9.9 °C 34337.4 hPa Calm     79 % 0 mm 527.0 W/m2 CLR
11:35 -7.6 °C -9.9 °C 34337.4 hPa Calm     77 % 0 mm 322.0 W/m2 CLR
11:40 -7.6 °C -9.9 °C 34337.4 hPa NNW 23.8 km/h 23.8 km/h 77 % 0 mm 622.0 W/m2 CLR
11:45 -7.3 °C -9.7 °C 34327.3 hPa North 11.9 km/h 11.9 km/h 76 % 0 mm 624.0 W/m2 CLR
11:50 -7.3 °C -9.7 °C 34327.3 hPa Calm     76 % 0 mm 577.0 W/m2 CLR
11:55 -7 °C -9.4 °C 34327.3 hPa West 15 km/h 15 km/h 76 % 0 mm 615.0 W/m2 CLR
12:00 -7 °C -9.7 °C 34313.7 hPa NNW 2.6 km/h 4.2 km/h 73 % 0 mm 534.0 W/m2 CLR
12:05 -7 °C -9.9 °C 34313.7 hPa Calm     71 % 0 mm 480.0 W/m2 CLR
12:10 -7.3 °C -10.3 °C 34313.7 hPa Calm     71 % 0 mm 260.0 W/m2 CLR
12:16 -7.3 °C -10.4 °C 34313.7 hPa North 15 km/h 17.4 km/h 70 % 0 mm 401.0 W/m2 CLR
12:21 -7 °C -10.1 °C 34313.7 hPa North 20.9 km/h 20.9 km/h 70 % 0 mm 642.0 W/m2 CLR
12:26 -7 °C -10.2 °C 34303.6 hPa NNW 2.6 km/h   69 % 0 mm 387.0 W/m2 CLR
12:31 -7 °C -10.2 °C 34303.6 hPa NNW 17.9 km/h 17.9 km/h 69 % 0 mm 274.0 W/m2 CLR
12:36 -7 °C -10.1 °C 34303.6 hPa NNW 11.9 km/h 11.9 km/h 70 % 0 mm 258.0 W/m2 CLR
12:41 -7 °C -10.1 °C 34303.6 hPa NW 3.1 km/h 3.1 km/h 70 % 0 mm 253.0 W/m2 CLR
12:46 -7 °C -10.3 °C 34303.6 hPa NW 6 km/h   68 % 0 mm 272.0 W/m2 CLR
12:51 -7 °C -10.3 °C 34293.4 hPa NNW 9 km/h 9 km/h 68 % 0 mm 332.0 W/m2 CLR
12:56 -7 °C -11 °C 34293.4 hPa WNW 20.9 km/h 20.9 km/h 63 % 0 mm 311.0 W/m2 CLR
13:01 -7 °C -11 °C 34293.4 hPa West 20.9 km/h 20.9 km/h 63 % 0 mm 264.0 W/m2 CLR
13:06 -7 °C -11.4 °C 34293.4 hPa WNW 20.9 km/h 20.9 km/h 60 % 0 mm 299.0 W/m2 CLR
13:11 -7 °C -11.6 °C 34293.4 hPa WNW 23.8 km/h 23.8 km/h 59 % 0 mm 320.0 W/m2 CLR
13:16 -7 °C -11.7 °C 34279.9 hPa West 20.9 km/h 20.9 km/h 58 % 0 mm 309.0 W/m2 CLR
13:21 -7 °C -11 °C 34279.9 hPa West 9 km/h 9 km/h 63 % 0 mm 272.0 W/m2 CLR
13:26 -7 °C -11.6 °C 34279.9 hPa WNW 20.9 km/h 20.9 km/h 59 % 0 mm 302.0 W/m2 CLR
13:31 -7 °C -11.6 °C 34279.9 hPa NW 20.9 km/h 20.9 km/h 59 % 0 mm 269.0 W/m2 CLR
13:36 -7 °C -11.4 °C 34279.9 hPa West 15 km/h 15 km/h 60 % 0 mm 253.0 W/m2 CLR
13:41 -7 °C -11.7 °C 34269.7 hPa WSW 9 km/h 9 km/h 58 % 0 mm 244.0 W/m2 CLR
13:46 -7 °C -11.6 °C 34269.7 hPa West 15 km/h 15 km/h 59 % 0 mm 255.0 W/m2 CLR
13:47 -7 °C -11.6 °C 34269.7 hPa WNW 15.6 km/h 15.6 km/h 59 % 0 mm 260.0 W/m2 CLR
13:52 -7 °C -11.8 °C 34269.7 hPa West 9 km/h 9 km/h 57 % 0 mm 308.0 W/m2 CLR
13:57 -7 °C -11.7 °C 34269.7 hPa WNW 9 km/h 9 km/h 58 % 0 mm 343.0 W/m2 CLR
14:02 -7 °C -11.6 °C 34269.7 hPa WNW 20.8 km/h 20.8 km/h 59 % 0 mm 403.0 W/m2 CLR
14:07 -6.7 °C -11.4 °C 34269.7 hPa WNW 15 km/h 15 km/h 58 % 0 mm 483.0 W/m2 CLR
14:12 -6.7 °C -11.4 °C 34256.2 hPa West 9 km/h 9 km/h 58 % 0 mm 316.0 W/m2 CLR
14:17 -7 °C -11.8 °C 34256.2 hPa WNW 17.9 km/h 17.9 km/h 57 % 0 mm 308.0 W/m2 CLR
14:22 -7 °C -11.8 °C 34256.2 hPa WNW 23.8 km/h 23.8 km/h 57 % 0 mm 227.0 W/m2 CLR
14:27 -7 °C -11.8 °C 34256.2 hPa West 9 km/h   57 % 0 mm 239.0 W/m2 CLR
14:32 -7 °C -11.8 °C 34256.2 hPa NW 11.9 km/h 11.9 km/h 57 % 0 mm 221.0 W/m2 CLR
14:37 -7 °C -11.8 °C 34256.2 hPa NW 11.9 km/h 11.9 km/h 57 % 0 mm 207.0 W/m2 CLR
14:42 -7 °C -11.8 °C 34256.2 hPa WNW 12.9 km/h 12.9 km/h 57 % 0 mm 197.0 W/m2 CLR
14:47 -7 °C -12 °C 34246 hPa West 9 km/h 9 km/h 56 % 0 mm 188.0 W/m2 CLR
14:52 -7.3 °C -12.1 °C 34246 hPa WNW 9 km/h 9 km/h 57 % 0 mm 221.0 W/m2 CLR
14:57 -7 °C -11.6 °C 34256.2 hPa WNW 18.2 km/h 18.2 km/h 59 % 0 mm 434.0 W/m2 CLR
15:02 -7 °C -11.8 °C 34256.2 hPa NW 20.9 km/h 20.9 km/h 57 % 0 mm 230.0 W/m2 CLR
15:07 -7 °C -12.1 °C 34256.2 hPa West 26.9 km/h 26.9 km/h 55 % 0 mm 271.0 W/m2 CLR
15:12 -7.3 °C -12.3 °C 34256.2 hPa NW 23.8 km/h 23.8 km/h 56 % 0 mm 190.0 W/m2 CLR
15:17 -7.3 °C -12.1 °C 34256.2 hPa West 9 km/h   57 % 0 mm 290.0 W/m2 CLR
15:22 -7 °C -12.1 °C 34246 hPa WNW 23.8 km/h 23.8 km/h 55 % 0 mm 401.0 W/m2 CLR
15:27 -7 °C -12 °C 34246 hPa WNW 20.9 km/h 20.9 km/h 56 % 0 mm 232.0 W/m2 CLR
15:32 -7 °C -12.1 °C 34246 hPa West 9 km/h   55 % 0 mm 294.0 W/m2 CLR
15:37 -7 °C -12 °C 34246 hPa NW 7.7 km/h 7.7 km/h 56 % 0 mm 285.0 W/m2 CLR
15:42 -7 °C -12.1 °C 34246 hPa West 9 km/h 9 km/h 55 % 0 mm 258.0 W/m2 CLR
15:47 -7 °C -12 °C 34246 hPa NW 17.9 km/h 17.9 km/h 56 % 0 mm 141.0 W/m2 CLR
15:52 -7.3 °C -12.3 °C 34246 hPa WNW 23.8 km/h 23.8 km/h 56 % 0 mm 257.0 W/m2 CLR
15:57 -7.3 °C -12.3 °C 34246 hPa WNW 17.9 km/h 17.9 km/h 56 % 0 mm 139.0 W/m2 CLR
16:02 -7.3 °C -12 °C 34246 hPa WNW 23.8 km/h 23.8 km/h 58 % 0 mm 130.0 W/m2 CLR
16:07 -7.3 °C -12 °C 34246 hPa WNW 23.8 km/h 23.8 km/h 58 % 0 mm 97.0 W/m2 CLR
16:12 -7.3 °C -11.8 °C 34246 hPa WNW 7.7 km/h 7.7 km/h 59 % 0 mm 72.0 W/m2 CLR
16:17 -7.3 °C -11.8 °C 34246 hPa WNW 17.9 km/h 17.9 km/h 59 % 0 mm 76.0 W/m2 FEW
16:22 -7.3 °C -11.6 °C 34246 hPa WNW 17.9 km/h 17.9 km/h 61 % 0 mm 162.0 W/m2 CLR
16:27 -7.3 °C -11.6 °C 34246 hPa Calm     61 % 0 mm 83.0 W/m2 CLR
16:32 -7.3 °C -11.4 °C 34246 hPa West 20.9 km/h 20.9 km/h 62 % 0 mm 79.0 W/m2 CLR
16:37 -7.6 °C -11.6 °C 34256.2 hPa WSW 17.9 km/h 17.9 km/h 63 % 0 mm 79.0 W/m2 FEW
16:42 -7.6 °C -11.4 °C 34256.2 hPa West 15 km/h 15 km/h 64 % 0 mm 58.0 W/m2 FEW
16:47 -7.6 °C -11.3 °C 34256.2 hPa West 10.3 km/h 10.3 km/h 65 % 0 mm 40.0 W/m2 SCT
16:52 -7.6 °C -11.2 °C 34256.2 hPa West 15 km/h 15 km/h 66 % 0 mm 30.0 W/m2 BKN
16:57 -7.6 °C -11.1 °C 34256.2 hPa West 9 km/h 9 km/h 67 % 0 mm 25.0 W/m2 BKN
17:02 -7.6 °C -10.9 °C 34269.7 hPa WSW 12.9 km/h 12.9 km/h 68 % 0 mm 18.0 W/m2 BKN
17:08 -7.6 °C -10.8 °C 34269.7 hPa WSW 23.8 km/h 23.8 km/h 69 % 0 mm 12.0 W/m2 BKN
17:13 -7.6 °C -10.7 °C 34256.2 hPa WSW 11.9 km/h 11.9 km/h 70 % 0 mm 11.0 W/m2 BKN
17:18 -7.6 °C -10.6 °C 34256.2 hPa SW 17.9 km/h 17.9 km/h 71 % 0 mm 9.0 W/m2 BKN
17:23 -7.9 °C -10.7 °C 34256.2 hPa SW 23.8 km/h 23.8 km/h 72 % 0 mm 5.0 W/m2 BKN
17:28 -7.9 °C -10.6 °C 34269.7 hPa SW 71.5 km/h 71.5 km/h 73 % 7.62 mm 5.0 W/m2 RA
17:33 -8.8 °C -10.9 °C 34269.7 hPa SW 44.1 km/h 44.1 km/h 78 % 50.8 mm 7.0 W/m2 RA
17:38 -9.4 °C -11.4 °C 34279.9 hPa SW 38.8 km/h 38.8 km/h 79 % 58.42 mm 5.0 W/m2 RA
17:43 -9.4 °C -11.3 °C 34269.7 hPa SSW 35.7 km/h 35.7 km/h 80 % 58.42 mm 0.0 W/m2 CLR
17:45 -9.8 °C -11.6 °C 34269.7 hPa SSW 41.7 km/h 41.7 km/h 80 % 58.42 mm 0.0 W/m2 CLR
17:50 -9.8 °C -11.6 °C 34269.7 hPa SSW 44.7 km/h 44.7 km/h 80 % 58.42 mm 0.0 W/m2 OVC
17:55 -9.8 °C -11.6 °C 34269.7 hPa SSW 44.7 km/h 44.7 km/h 81 % 58.42 mm 0.0 W/m2 OVC
18:00 -10.1 °C -11.6 °C 34279.9 hPa SSW 41.7 km/h 41.7 km/h 83 % 58.42 mm 0.0 W/m2 OVC
18:05 -10.1 °C -11.6 °C 34279.9 hPa SSW 32.8 km/h 32.8 km/h 83 % 58.42 mm 0.0 W/m2 CLR
18:10 -10.1 °C -11.6 °C 34279.9 hPa SSW 9 km/h 9 km/h 84 % 58.42 mm 0.0 W/m2 CLR
18:15 -10.1 °C -11.6 °C 34293.4 hPa Calm     84 % 58.42 mm 0.0 W/m2 CLR
18:20 -10.1 °C -11.4 °C 34293.4 hPa Calm     85 % 58.42 mm 0.0 W/m2 CLR
18:25 -10.4 °C -11.7 °C 34303.6 hPa Calm     85 % 58.42 mm 0.0 W/m2 CLR
18:30 -10.4 °C -11.6 °C 34303.6 hPa Calm     86 % 25.4 mm 0.0 W/m2 CLR
18:35 -10.4 °C -11.7 °C 34303.6 hPa Calm     85 % 0 mm 0.0 W/m2 CLR
18:40 -10.4 °C -11.6 °C 34303.6 hPa Calm     86 % 0 mm 0.0 W/m2 CLR
18:45 -10.4 °C -11.6 °C 34313.7 hPa Calm     86 % 0 mm 0.0 W/m2 CLR
18:50 -10.4 °C -11.6 °C 34313.7 hPa Calm     86 % 0 mm 0.0 W/m2 CLR
18:55 -10.4 °C -11.6 °C 34313.7 hPa Calm     86 % 0 mm 0.0 W/m2 CLR
19:00 -10.4 °C -11.7 °C 34313.7 hPa Calm     85 % 0 mm 0.0 W/m2 CLR
19:05 -10.4 °C -11.6 °C 34327.3 hPa Calm     86 % 0 mm 0.0 W/m2 CLR
19:10 -10.7 °C -11.9 °C 34313.7 hPa Calm     86 % 0 mm 0.0 W/m2 CLR
19:15 -10.7 °C -11.8 °C 34327.3 hPa Calm     87 % 0 mm 0.0 W/m2 CLR
19:20 -10.7 °C -11.8 °C 34327.3 hPa Calm     88 % 0 mm 0.0 W/m2 CLR
19:25 -10.7 °C -11.8 °C 34327.3 hPa Calm     87 % 0 mm 0.0 W/m2 CLR
19:30 -10.7 °C -11.8 °C 34327.3 hPa Calm     87 % 0 mm 0.0 W/m2 CLR
19:35 -10.4 °C -11.6 °C 34327.3 hPa Calm     87 % 0 mm 0.0 W/m2 CLR
19:40 -10.4 °C -11.6 °C 34327.3 hPa Calm     87 % 0 mm 0.0 W/m2 CLR
19:45 -10.4 °C -11.6 °C 34327.3 hPa Calm     87 % 0 mm 0.0 W/m2 CLR
19:50 -10.7 °C -11.8 °C 34327.3 hPa Calm     87 % 0 mm 0.0 W/m2 CLR
19:55 -10.7 °C -11.8 °C 34327.3 hPa Calm     87 % 0 mm 0.0 W/m2 CLR
20:00 -10.7 °C -11.8 °C 34327.3 hPa Calm     87 % 0 mm 0.0 W/m2 CLR
20:05 -10.7 °C -11.8 °C 34327.3 hPa Calm     88 % 0 mm 0.0 W/m2 CLR
20:10 -10.7 °C -11.8 °C 34327.3 hPa Calm     88 % 0 mm 0.0 W/m2 CLR
20:15 -10.7 °C -11.8 °C 34337.4 hPa Calm     88 % 0 mm 0.0 W/m2 CLR
20:20 -10.7 °C -11.8 °C 34337.4 hPa Calm     88 % 0 mm 0.0 W/m2 CLR
20:25 -10.7 °C -11.7 °C 34327.3 hPa Calm     89 % 0 mm 0.0 W/m2 CLR
20:26 -10.7 °C -11.7 °C 34327.3 hPa Calm     89 % 0 mm 0.0 W/m2 CLR
20:31 -11 °C -12 °C 34327.3 hPa Calm     89 % 0 mm 0.0 W/m2 CLR
20:36 -11 °C -12 °C 34337.4 hPa Calm     89 % 0 mm 0.0 W/m2 CLR
20:41 -11 °C -12 °C 34337.4 hPa Calm     89 % 0 mm 0.0 W/m2 CLR
20:46 -11 °C -12 °C 34337.4 hPa Calm     89 % 0 mm 0.0 W/m2 CLR
20:51 -11 °C -11.9 °C 34337.4 hPa Calm     90 % 0 mm 0.0 W/m2 CLR
20:56 -11 °C -12 °C 34337.4 hPa Calm     89 % 0 mm 0.0 W/m2 CLR
21:01 -11 °C -12.4 °C 34337.4 hPa SSW 17.9 km/h 17.9 km/h 84 % 0 mm 0.0 W/m2 CLR
21:06 -11 °C -12.7 °C 34337.4 hPa SSW 9 km/h 9 km/h 81 % 0 mm 0.0 W/m2 CLR
21:11 -11 °C -13.1 °C 34337.4 hPa SSW 23.8 km/h 23.8 km/h 78 % 0 mm 0.0 W/m2 CLR
21:16 -11 °C -13.4 °C 34337.4 hPa South 11.9 km/h 11.9 km/h 75 % 0 mm 0.0 W/m2 CLR
21:21 -11 °C -13.6 °C 34337.4 hPa SSW 23.8 km/h 23.8 km/h 73 % 0 mm 0.0 W/m2 CLR
21:26 -11 °C -13.6 °C 34347.6 hPa SSW 15.6 km/h 15.6 km/h 73 % 0 mm 0.0 W/m2 CLR
21:31 -11 °C -13.6 °C 34347.6 hPa SSW 20.8 km/h 20.8 km/h 73 % 0 mm 0.0 W/m2 CLR
21:36 -11 °C -13.7 °C 34347.6 hPa SSW 23.8 km/h 23.8 km/h 72 % 0 mm 0.0 W/m2 CLR
21:41 -11 °C -13.7 °C 34347.6 hPa SSW 20.9 km/h 20.9 km/h 72 % 0 mm 0.0 W/m2 CLR
21:46 -11 °C -13.7 °C 34347.6 hPa SSW 23.8 km/h 23.8 km/h 72 % 0 mm 0.0 W/m2 CLR
21:51 -11 °C -13.7 °C 34361.1 hPa South 26.9 km/h 26.9 km/h 72 % 0 mm 0.0 W/m2 CLR
21:56 -11 °C -13.6 °C 34347.6 hPa SSW 29.8 km/h 29.8 km/h 73 % 0 mm 0.0 W/m2 CLR
22:01 -10.7 °C -13.3 °C 34361.1 hPa SSW 29.8 km/h 29.8 km/h 73 % 0 mm 0.0 W/m2 CLR
22:06 -10.4 °C -13 °C 34361.1 hPa SSW 29.8 km/h 29.8 km/h 73 % 0 mm 0.0 W/m2 CLR
22:11 -10.4 °C -13 °C 34361.1 hPa SW 32.8 km/h 32.8 km/h 73 % 0 mm 0.0 W/m2 CLR
22:16 -10.4 °C -12.9 °C 34361.1 hPa SSW 29.8 km/h 29.8 km/h 74 % 0 mm 0.0 W/m2 CLR
22:21 -10.4 °C -12.8 °C 34361.1 hPa SW 29.8 km/h 29.8 km/h 75 % 0 mm 0.0 W/m2 CLR
22:26 -10.4 °C -12.7 °C 34371.3 hPa SW 35.7 km/h 35.7 km/h 76 % 0 mm 0.0 W/m2 CLR
22:31 -10.4 °C -12.6 °C 34371.3 hPa SSW 38.8 km/h 38.8 km/h 77 % 0 mm 0.0 W/m2 CLR
22:36 -10.4 °C -12.4 °C 34371.3 hPa SW 29.8 km/h 29.8 km/h 78 % 0 mm 0.0 W/m2 CLR
22:41 -10.4 °C -12.3 °C 34371.3 hPa SSW 35.7 km/h 35.7 km/h 79 % 0 mm 0.0 W/m2 CLR
22:42 -10.4 °C -12.3 °C 34371.3 hPa SW 36.2 km/h 36.2 km/h 80 % 0 mm 0.0 W/m2 CLR
22:47 -10.4 °C -12.1 °C 34371.3 hPa SW 35.7 km/h 35.7 km/h 81 % 0 mm 0.0 W/m2 CLR
22:52 -10.4 °C -12.1 °C 34371.3 hPa SW 32.8 km/h 32.8 km/h 81 % 0 mm 0.0 W/m2 CLR
22:57 -10.4 °C -12.1 °C 34371.3 hPa SSW 29.8 km/h 29.8 km/h 81 % 0 mm 0.0 W/m2 CLR
23:02 -10.4 °C -12.1 °C 34371.3 hPa SW 35.7 km/h 35.7 km/h 82 % 0 mm 0.0 W/m2 CLR
23:07 -10.4 °C -12.1 °C 34361.1 hPa SSW 41.7 km/h 41.7 km/h 82 % 0 mm 0.0 W/m2 CLR
23:12 -10.4 °C -11.9 °C 34361.1 hPa SSW 44.7 km/h 44.7 km/h 83 % 0 mm 0.0 W/m2 CLR
23:17 -10.4 °C -11.8 °C 34361.1 hPa SSW 29.8 km/h 29.8 km/h 84 % 0 mm 0.0 W/m2 CLR
23:22 -10.7 °C -12.1 °C 34361.1 hPa SSW 29.8 km/h 29.8 km/h 84 % 0 mm 0.0 W/m2 CLR
23:27 -10.7 °C -12.1 °C 34361.1 hPa South 29.8 km/h 29.8 km/h 85 % 0 mm 0.0 W/m2 CLR
23:32 -10.7 °C -11.9 °C 34361.1 hPa SSW 32.8 km/h 32.8 km/h 86 % 0 mm 0.0 W/m2 CLR
23:35 -10.7 °C -11.9 °C 34361.1 hPa SSW 32.8 km/h 32.8 km/h 86 % 0 mm 0.0 W/m2 CLR
23:40 -10.7 °C -12.1 °C 34361.1 hPa SSW 38.8 km/h 38.8 km/h 85 % 0 mm 0.0 W/m2 CLR
23:45 -10.7 °C -12.1 °C 34361.1 hPa SSW 31.1 km/h 31.1 km/h 84 % 0 mm 0.0 W/m2 CLR
23:50 -10.4 °C -11.8 °C 34361.1 hPa SW 41.7 km/h 41.7 km/h 84 % 0 mm 0.0 W/m2 CLR
23:55 -10.4 °C -11.8 °C 34361.1 hPa SW 47.6 km/h 47.6 km/h 84 % 0 mm 0.0 W/m2 CLR
Lo Temps de Massalio
Compliments of Weather Underground - 1.25 mb